sensor_id;sensor_type;location;lat;lon;timestamp;temperature;humidity
41944;DHT22;27636;52.610;13.244;2023-11-22T00:03:31;-1.00;99.90
41944;DHT22;27636;52.610;13.244;2023-11-22T00:08:36;-1.00;99.90
41944;DHT22;27636;52.610;13.244;2023-11-22T00:13:40;-1.10;99.90
41944;DHT22;27636;52.610;13.244;2023-11-22T00:18:45;-1.10;99.90
41944;DHT22;27636;52.610;13.244;2023-11-22T00:23:50;-1.30;99.90
41944;DHT22;27636;52.610;13.244;2023-11-22T00:28:55;-1.40;99.90
41944;DHT22;27636;52.610;13.244;2023-11-22T00:33:59;-1.30;99.90
41944;DHT22;27636;52.610;13.244;2023-11-22T00:39:04;-1.30;99.90
41944;DHT22;27636;52.610;13.244;2023-11-22T00:44:08;-1.30;99.90
41944;DHT22;27636;52.610;13.244;2023-11-22T00:49:12;-1.30;99.90
41944;DHT22;27636;52.610;13.244;2023-11-22T00:54:18;-1.30;99.90
41944;DHT22;27636;52.610;13.244;2023-11-22T00:59:23;-1.20;99.90
41944;DHT22;27636;52.610;13.244;2023-11-22T01:04:27;-1.40;99.90
41944;DHT22;27636;52.610;13.244;2023-11-22T01:09:33;-1.40;99.90
41944;DHT22;27636;52.610;13.244;2023-11-22T01:14:37;-1.50;99.90
41944;DHT22;27636;52.610;13.244;2023-11-22T01:19:41;-1.50;99.90
41944;DHT22;27636;52.610;13.244;2023-11-22T01:24:47;-1.50;99.90
41944;DHT22;27636;52.610;13.244;2023-11-22T01:29:50;-1.50;99.90
41944;DHT22;27636;52.610;13.244;2023-11-22T01:34:54;-1.50;99.90
41944;DHT22;27636;52.610;13.244;2023-11-22T01:40:03;-1.40;99.90
41944;DHT22;27636;52.610;13.244;2023-11-22T01:45:08;-1.40;99.90
41944;DHT22;27636;52.610;13.244;2023-11-22T01:50:13;-1.30;99.90
41944;DHT22;27636;52.610;13.244;2023-11-22T01:55:19;-1.40;99.90
41944;DHT22;27636;52.610;13.244;2023-11-22T02:00:24;-1.60;99.90
41944;DHT22;27636;52.610;13.244;2023-11-22T02:05:32;-1.50;99.90
41944;DHT22;27636;52.610;13.244;2023-11-22T02:10:38;-1.60;99.90
41944;DHT22;27636;52.610;13.244;2023-11-22T02:15:42;-1.70;99.90
41944;DHT22;27636;52.610;13.244;2023-11-22T02:20:46;-1.50;99.90
41944;DHT22;27636;52.610;13.244;2023-11-22T02:25:51;-1.30;99.90
41944;DHT22;27636;52.610;13.244;2023-11-22T02:30:55;-1.50;99.90
41944;DHT22;27636;52.610;13.244;2023-11-22T02:36:00;-1.70;99.90
41944;DHT22;27636;52.610;13.244;2023-11-22T02:41:06;-1.70;99.90
41944;DHT22;27636;52.610;13.244;2023-11-22T02:46:13;-1.70;99.90
41944;DHT22;27636;52.610;13.244;2023-11-22T02:51:17;-1.80;99.90
41944;DHT22;27636;52.610;13.244;2023-11-22T02:56:23;-1.80;99.90
41944;DHT22;27636;52.610;13.244;2023-11-22T03:01:26;-1.90;99.90
41944;DHT22;27636;52.610;13.244;2023-11-22T03:06:31;-1.90;99.90
41944;DHT22;27636;52.610;13.244;2023-11-22T03:11:36;-2.10;99.90
41944;DHT22;27636;52.610;13.244;2023-11-22T03:16:40;-2.10;99.90
41944;DHT22;27636;52.610;13.244;2023-11-22T03:21:44;-2.10;99.90
41944;DHT22;27636;52.610;13.244;2023-11-22T03:26:50;-2.10;99.90
41944;DHT22;27636;52.610;13.244;2023-11-22T03:31:54;-2.10;99.90
41944;DHT22;27636;52.610;13.244;2023-11-22T03:36:58;-2.20;99.90
41944;DHT22;27636;52.610;13.244;2023-11-22T03:42:03;-2.30;99.90
41944;DHT22;27636;52.610;13.244;2023-11-22T03:47:09;-2.20;99.90
41944;DHT22;27636;52.610;13.244;2023-11-22T03:52:13;-2.10;99.90
41944;DHT22;27636;52.610;13.244;2023-11-22T03:57:21;-2.20;99.90
41944;DHT22;27636;52.610;13.244;2023-11-22T04:02:25;-2.20;99.90
41944;DHT22;27636;52.610;13.244;2023-11-22T04:07:29;-2.20;99.90
41944;DHT22;27636;52.610;13.244;2023-11-22T04:12:35;-2.20;99.90
41944;DHT22;27636;52.610;13.244;2023-11-22T04:17:39;-2.50;99.90
41944;DHT22;27636;52.610;13.244;2023-11-22T04:22:45;-2.50;99.90
41944;DHT22;27636;52.610;13.244;2023-11-22T04:27:50;-2.60;99.90
41944;DHT22;27636;52.610;13.244;2023-11-22T04:32:54;-2.40;99.90
41944;DHT22;27636;52.610;13.244;2023-11-22T04:37:58;-2.40;99.90
41944;DHT22;27636;52.610;13.244;2023-11-22T04:43:03;-2.50;99.90
41944;DHT22;27636;52.610;13.244;2023-11-22T04:48:07;-2.50;99.90
41944;DHT22;27636;52.610;13.244;2023-11-22T04:53:11;-2.60;99.90
41944;DHT22;27636;52.610;13.244;2023-11-22T04:58:16;-2.50;99.90
41944;DHT22;27636;52.610;13.244;2023-11-22T05:03:20;-2.60;99.90
41944;DHT22;27636;52.610;13.244;2023-11-22T05:08:24;-2.80;99.90
41944;DHT22;27636;52.610;13.244;2023-11-22T05:13:30;-2.70;99.90
41944;DHT22;27636;52.610;13.244;2023-11-22T05:18:34;-2.60;99.90
41944;DHT22;27636;52.610;13.244;2023-11-22T05:23:39;-2.80;99.90
41944;DHT22;27636;52.610;13.244;2023-11-22T05:28:46;-2.90;99.90
41944;DHT22;27636;52.610;13.244;2023-11-22T05:33:50;-2.70;99.90
41944;DHT22;27636;52.610;13.244;2023-11-22T05:38:54;-2.70;99.90
41944;DHT22;27636;52.610;13.244;2023-11-22T05:44:01;-2.80;99.90
41944;DHT22;27636;52.610;13.244;2023-11-22T05:49:06;-2.90;99.90
41944;DHT22;27636;52.610;13.244;2023-11-22T05:54:12;-2.90;99.90
41944;DHT22;27636;52.610;13.244;2023-11-22T05:59:17;-2.80;99.90
41944;DHT22;27636;52.610;13.244;2023-11-22T06:04:21;-2.70;99.90
41944;DHT22;27636;52.610;13.244;2023-11-22T06:09:25;-2.80;99.90
41944;DHT22;27636;52.610;13.244;2023-11-22T06:14:31;-2.80;99.90
41944;DHT22;27636;52.610;13.244;2023-11-22T06:19:36;-2.80;99.90
41944;DHT22;27636;52.610;13.244;2023-11-22T06:24:40;-2.80;99.90
41944;DHT22;27636;52.610;13.244;2023-11-22T06:29:46;-2.90;99.90
41944;DHT22;27636;52.610;13.244;2023-11-22T06:34:50;-2.90;99.90
41944;DHT22;27636;52.610;13.244;2023-11-22T06:39:55;-3.00;99.90
41944;DHT22;27636;52.610;13.244;2023-11-22T06:45:02;-3.00;99.90
41944;DHT22;27636;52.610;13.244;2023-11-22T06:50:08;-3.00;99.90
41944;DHT22;27636;52.610;13.244;2023-11-22T06:55:15;-3.00;99.90
41944;DHT22;27636;52.610;13.244;2023-11-22T07:00:21;-3.00;99.90
41944;DHT22;27636;52.610;13.244;2023-11-22T07:05:25;-3.00;99.90
41944;DHT22;27636;52.610;13.244;2023-11-22T07:10:29;-2.90;99.90
41944;DHT22;27636;52.610;13.244;2023-11-22T07:15:38;-2.80;99.90
41944;DHT22;27636;52.610;13.244;2023-11-22T07:20:45;-2.80;99.90
41944;DHT22;27636;52.610;13.244;2023-11-22T07:25:52;-2.80;99.90
41944;DHT22;27636;52.610;13.244;2023-11-22T07:30:57;-2.60;99.90
41944;DHT22;27636;52.610;13.244;2023-11-22T07:36:02;-2.50;99.90
41944;DHT22;27636;52.610;13.244;2023-11-22T07:41:07;-2.50;99.90
41944;DHT22;27636;52.610;13.244;2023-11-22T07:46:12;-2.40;99.90
41944;DHT22;27636;52.610;13.244;2023-11-22T07:51:17;-2.10;99.90
41944;DHT22;27636;52.610;13.244;2023-11-22T07:56:21;-2.00;99.90
41944;DHT22;27636;52.610;13.244;2023-11-22T08:01:27;-1.90;99.90
41944;DHT22;27636;52.610;13.244;2023-11-22T08:06:35;-1.80;99.90
41944;DHT22;27636;52.610;13.244;2023-11-22T08:11:39;-1.60;99.90
41944;DHT22;27636;52.610;13.244;2023-11-22T08:16:46;-1.50;99.90
41944;DHT22;27636;52.610;13.244;2023-11-22T08:21:50;-1.50;99.90
41944;DHT22;27636;52.610;13.244;2023-11-22T08:26:54;-1.40;99.90
41944;DHT22;27636;52.610;13.244;2023-11-22T08:32:00;-1.10;99.90
41944;DHT22;27636;52.610;13.244;2023-11-22T08:37:07;-0.50;99.90
41944;DHT22;27636;52.610;13.244;2023-11-22T08:42:11;-0.20;99.90
41944;DHT22;27636;52.610;13.244;2023-11-22T08:47:18;-0.40;99.90
41944;DHT22;27636;52.610;13.244;2023-11-22T08:52:22;-0.50;99.90
41944;DHT22;27636;52.610;13.244;2023-11-22T08:57:27;0.50;99.90
41944;DHT22;27636;52.610;13.244;2023-11-22T09:02:32;2.20;99.90
41944;DHT22;27636;52.610;13.244;2023-11-22T09:07:36;3.70;99.90
41944;DHT22;27636;52.610;13.244;2023-11-22T09:12:42;4.60;99.90
41944;DHT22;27636;52.610;13.244;2023-11-22T09:17:49;4.90;99.90
41944;DHT22;27636;52.610;13.244;2023-11-22T09:22:54;5.10;99.90
41944;DHT22;27636;52.610;13.244;2023-11-22T09:27:59;5.20;99.90
41944;DHT22;27636;52.610;13.244;2023-11-22T09:33:05;5.10;99.90
41944;DHT22;27636;52.610;13.244;2023-11-22T09:38:10;5.70;98.80
41944;DHT22;27636;52.610;13.244;2023-11-22T09:43:18;4.30;99.60
41944;DHT22;27636;52.610;13.244;2023-11-22T09:48:24;3.20;99.90
41944;DHT22;27636;52.610;13.244;2023-11-22T09:53:33;1.90;99.90
41944;DHT22;27636;52.610;13.244;2023-11-22T09:58:40;1.60;99.90
41944;DHT22;27636;52.610;13.244;2023-11-22T10:03:49;1.60;99.90
41944;DHT22;27636;52.610;13.244;2023-11-22T10:08:53;1.70;99.90
41944;DHT22;27636;52.610;13.244;2023-11-22T10:13:57;1.60;99.90
41944;DHT22;27636;52.610;13.244;2023-11-22T10:19:04;1.70;99.90
41944;DHT22;27636;52.610;13.244;2023-11-22T10:24:10;2.00;99.90
41944;DHT22;27636;52.610;13.244;2023-11-22T10:29:14;1.70;99.90
41944;DHT22;27636;52.610;13.244;2023-11-22T10:34:20;2.30;99.90
41944;DHT22;27636;52.610;13.244;2023-11-22T10:39:23;2.60;99.90
41944;DHT22;27636;52.610;13.244;2023-11-22T10:44:29;3.00;99.90
41944;DHT22;27636;52.610;13.244;2023-11-22T10:49:34;3.00;99.90
41944;DHT22;27636;52.610;13.244;2023-11-22T10:54:38;3.30;99.90
41944;DHT22;27636;52.610;13.244;2023-11-22T10:59:44;3.10;99.90
41944;DHT22;27636;52.610;13.244;2023-11-22T11:04:56;2.70;99.90
41944;DHT22;27636;52.610;13.244;2023-11-22T11:10:02;2.40;99.90
41944;DHT22;27636;52.610;13.244;2023-11-22T11:15:19;2.50;99.90
41944;DHT22;27636;52.610;13.244;2023-11-22T11:20:27;2.60;99.90
41944;DHT22;27636;52.610;13.244;2023-11-22T11:25:36;2.80;99.90
41944;DHT22;27636;52.610;13.244;2023-11-22T11:30:46;3.10;99.90
41944;DHT22;27636;52.610;13.244;2023-11-22T11:35:54;2.70;99.90
41944;DHT22;27636;52.610;13.244;2023-11-22T11:41:05;2.60;99.90
41944;DHT22;27636;52.610;13.244;2023-11-22T11:46:11;2.50;99.90
41944;DHT22;27636;52.610;13.244;2023-11-22T11:51:17;3.00;99.90
41944;DHT22;27636;52.610;13.244;2023-11-22T11:56:21;3.50;99.90
41944;DHT22;27636;52.610;13.244;2023-11-22T12:01:27;3.80;99.90
41944;DHT22;27636;52.610;13.244;2023-11-22T12:06:32;4.00;99.90
41944;DHT22;27636;52.610;13.244;2023-11-22T12:11:40;4.10;99.90
41944;DHT22;27636;52.610;13.244;2023-11-22T12:16:46;4.60;98.50
41944;DHT22;27636;52.610;13.244;2023-11-22T12:21:54;5.10;97.80
41944;DHT22;27636;52.610;13.244;2023-11-22T12:26:58;5.50;96.20
41944;DHT22;27636;52.610;13.244;2023-11-22T12:32:01;5.30;96.60
41944;DHT22;27636;52.610;13.244;2023-11-22T12:37:06;5.20;94.50
41944;DHT22;27636;52.610;13.244;2023-11-22T12:42:11;4.70;96.20
41944;DHT22;27636;52.610;13.244;2023-11-22T12:47:14;5.00;96.60
41944;DHT22;27636;52.610;13.244;2023-11-22T12:52:21;5.10;95.30
41944;DHT22;27636;52.610;13.244;2023-11-22T12:57:29;4.60;96.60
41944;DHT22;27636;52.610;13.244;2023-11-22T13:02:33;4.40;97.60
41944;DHT22;27636;52.610;13.244;2023-11-22T13:07:50;4.00;97.50
41944;DHT22;27636;52.610;13.244;2023-11-22T13:12:56;3.60;98.50
41944;DHT22;27636;52.610;13.244;2023-11-22T13:18:01;3.50;99.90
41944;DHT22;27636;52.610;13.244;2023-11-22T13:23:06;3.40;99.90
41944;DHT22;27636;52.610;13.244;2023-11-22T13:28:10;3.30;99.90
41944;DHT22;27636;52.610;13.244;2023-11-22T13:33:14;3.10;99.90
41944;DHT22;27636;52.610;13.244;2023-11-22T13:38:19;3.00;99.90
41944;DHT22;27636;52.610;13.244;2023-11-22T13:43:23;2.90;99.90
41944;DHT22;27636;52.610;13.244;2023-11-22T13:48:27;2.80;99.90
41944;DHT22;27636;52.610;13.244;2023-11-22T13:53:32;2.70;99.90
41944;DHT22;27636;52.610;13.244;2023-11-22T13:58:38;2.60;99.90
41944;DHT22;27636;52.610;13.244;2023-11-22T14:03:42;2.50;99.90
41944;DHT22;27636;52.610;13.244;2023-11-22T14:08:47;2.40;99.90
41944;DHT22;27636;52.610;13.244;2023-11-22T14:13:51;2.30;99.90
41944;DHT22;27636;52.610;13.244;2023-11-22T14:18:55;2.10;99.90
41944;DHT22;27636;52.610;13.244;2023-11-22T14:24:00;2.00;99.90
41944;DHT22;27636;52.610;13.244;2023-11-22T14:29:04;1.80;99.90
41944;DHT22;27636;52.610;13.244;2023-11-22T14:34:09;1.60;99.90
41944;DHT22;27636;52.610;13.244;2023-11-22T14:39:17;1.40;99.90
41944;DHT22;27636;52.610;13.244;2023-11-22T14:44:21;1.30;99.90
41944;DHT22;27636;52.610;13.244;2023-11-22T14:49:25;1.00;99.90
41944;DHT22;27636;52.610;13.244;2023-11-22T14:54:30;1.00;99.90
41944;DHT22;27636;52.610;13.244;2023-11-22T14:59:34;0.80;99.90
41944;DHT22;27636;52.610;13.244;2023-11-22T15:04:37;0.80;99.90
41944;DHT22;27636;52.610;13.244;2023-11-22T15:09:42;0.70;99.90
41944;DHT22;27636;52.610;13.244;2023-11-22T15:14:47;0.60;99.90
41944;DHT22;27636;52.610;13.244;2023-11-22T15:19:51;0.70;99.90
41944;DHT22;27636;52.610;13.244;2023-11-22T15:24:56;0.70;99.90
41944;DHT22;27636;52.610;13.244;2023-11-22T15:30:00;0.70;99.90
41944;DHT22;27636;52.610;13.244;2023-11-22T15:35:05;0.90;99.90
41944;DHT22;27636;52.610;13.244;2023-11-22T15:40:11;0.80;99.90
41944;DHT22;27636;52.610;13.244;2023-11-22T15:45:16;0.70;99.90
41944;DHT22;27636;52.610;13.244;2023-11-22T15:50:20;0.70;99.90
41944;DHT22;27636;52.610;13.244;2023-11-22T15:55:25;0.70;99.90
41944;DHT22;27636;52.610;13.244;2023-11-22T16:00:29;0.60;99.90
41944;DHT22;27636;52.610;13.244;2023-11-22T16:05:33;0.70;99.90
41944;DHT22;27636;52.610;13.244;2023-11-22T16:10:39;0.70;99.90
41944;DHT22;27636;52.610;13.244;2023-11-22T16:15:44;0.70;99.90
41944;DHT22;27636;52.610;13.244;2023-11-22T16:20:48;0.70;99.90
41944;DHT22;27636;52.610;13.244;2023-11-22T16:25:53;0.70;99.90
41944;DHT22;27636;52.610;13.244;2023-11-22T16:30:57;0.70;99.90
41944;DHT22;27636;52.610;13.244;2023-11-22T16:36:01;0.70;99.90
41944;DHT22;27636;52.610;13.244;2023-11-22T16:41:06;0.80;99.90
41944;DHT22;27636;52.610;13.244;2023-11-22T16:46:12;0.90;99.90
41944;DHT22;27636;52.610;13.244;2023-11-22T16:51:16;0.70;99.90
41944;DHT22;27636;52.610;13.244;2023-11-22T16:56:21;0.80;99.90
41944;DHT22;27636;52.610;13.244;2023-11-22T17:01:25;0.80;99.90
41944;DHT22;27636;52.610;13.244;2023-11-22T17:06:29;0.80;99.90
41944;DHT22;27636;52.610;13.244;2023-11-22T17:11:34;0.90;99.90
41944;DHT22;27636;52.610;13.244;2023-11-22T17:16:39;1.00;99.90
41944;DHT22;27636;52.610;13.244;2023-11-22T17:21:43;1.00;99.90
41944;DHT22;27636;52.610;13.244;2023-11-22T17:26:48;1.00;99.90
41944;DHT22;27636;52.610;13.244;2023-11-22T17:31:53;1.10;99.90
41944;DHT22;27636;52.610;13.244;2023-11-22T17:36:56;1.20;99.90
41944;DHT22;27636;52.610;13.244;2023-11-22T17:42:03;1.20;99.90
41944;DHT22;27636;52.610;13.244;2023-11-22T17:47:07;1.20;99.90
41944;DHT22;27636;52.610;13.244;2023-11-22T17:52:11;1.00;99.90
41944;DHT22;27636;52.610;13.244;2023-11-22T17:57:16;1.00;99.90
41944;DHT22;27636;52.610;13.244;2023-11-22T18:02:21;1.20;99.90
41944;DHT22;27636;52.610;13.244;2023-11-22T18:07:24;1.00;99.90
41944;DHT22;27636;52.610;13.244;2023-11-22T18:12:31;0.80;99.90
41944;DHT22;27636;52.610;13.244;2023-11-22T18:17:35;0.80;99.90
41944;DHT22;27636;52.610;13.244;2023-11-22T18:22:39;0.60;99.90
41944;DHT22;27636;52.610;13.244;2023-11-22T18:27:44;0.50;99.90
41944;DHT22;27636;52.610;13.244;2023-11-22T18:32:48;0.50;99.90
41944;DHT22;27636;52.610;13.244;2023-11-22T18:37:52;0.50;99.90
41944;DHT22;27636;52.610;13.244;2023-11-22T18:42:57;0.40;99.90
41944;DHT22;27636;52.610;13.244;2023-11-22T18:48:01;0.50;99.90
41944;DHT22;27636;52.610;13.244;2023-11-22T18:53:07;0.30;99.90
41944;DHT22;27636;52.610;13.244;2023-11-22T18:58:11;0.30;99.90
41944;DHT22;27636;52.610;13.244;2023-11-22T19:03:15;0.30;99.90
41944;DHT22;27636;52.610;13.244;2023-11-22T19:08:19;0.40;99.90
41944;DHT22;27636;52.610;13.244;2023-11-22T19:13:25;0.50;99.90
41944;DHT22;27636;52.610;13.244;2023-11-22T19:18:28;0.50;99.90
41944;DHT22;27636;52.610;13.244;2023-11-22T19:23:33;0.40;99.90
41944;DHT22;27636;52.610;13.244;2023-11-22T19:28:38;0.40;99.90
41944;DHT22;27636;52.610;13.244;2023-11-22T19:33:43;0.30;99.90
41944;DHT22;27636;52.610;13.244;2023-11-22T19:38:47;0.30;99.90
41944;DHT22;27636;52.610;13.244;2023-11-22T19:43:52;0.10;99.90
41944;DHT22;27636;52.610;13.244;2023-11-22T19:48:56;0.00;99.90
41944;DHT22;27636;52.610;13.244;2023-11-22T19:54:00;0.00;99.90
41944;DHT22;27636;52.610;13.244;2023-11-22T19:59:05;0.20;99.90
41944;DHT22;27636;52.610;13.244;2023-11-22T20:04:10;0.20;99.90
41944;DHT22;27636;52.610;13.244;2023-11-22T20:09:15;0.10;99.90
41944;DHT22;27636;52.610;13.244;2023-11-22T20:14:20;0.00;99.90
41944;DHT22;27636;52.610;13.244;2023-11-22T20:19:24;0.20;99.90
41944;DHT22;27636;52.610;13.244;2023-11-22T20:24:28;0.30;99.90
41944;DHT22;27636;52.610;13.244;2023-11-22T20:29:33;0.50;99.90
41944;DHT22;27636;52.610;13.244;2023-11-22T20:34:37;0.50;99.90
41944;DHT22;27636;52.610;13.244;2023-11-22T20:39:42;0.50;99.90
41944;DHT22;27636;52.610;13.244;2023-11-22T20:44:47;0.60;99.90
41944;DHT22;27636;52.610;13.244;2023-11-22T20:49:51;0.60;99.90
41944;DHT22;27636;52.610;13.244;2023-11-22T20:54:55;0.60;99.90
41944;DHT22;27636;52.610;13.244;2023-11-22T21:00:00;0.70;99.90
41944;DHT22;27636;52.610;13.244;2023-11-22T21:05:05;0.70;99.90
41944;DHT22;27636;52.610;13.244;2023-11-22T21:10:09;0.70;99.90
41944;DHT22;27636;52.610;13.244;2023-11-22T21:15:14;0.70;99.90
41944;DHT22;27636;52.610;13.244;2023-11-22T21:20:18;0.60;99.90
41944;DHT22;27636;52.610;13.244;2023-11-22T21:25:21;0.50;99.90
41944;DHT22;27636;52.610;13.244;2023-11-22T21:30:26;0.60;99.90
41944;DHT22;27636;52.610;13.244;2023-11-22T21:35:30;0.50;99.90
41944;DHT22;27636;52.610;13.244;2023-11-22T21:40:34;0.40;99.90
41944;DHT22;27636;52.610;13.244;2023-11-22T21:45:43;0.50;99.90
41944;DHT22;27636;52.610;13.244;2023-11-22T21:50:47;0.60;99.90
41944;DHT22;27636;52.610;13.244;2023-11-22T21:55:51;0.60;99.90
41944;DHT22;27636;52.610;13.244;2023-11-22T22:00:56;0.90;99.90
41944;DHT22;27636;52.610;13.244;2023-11-22T22:06:00;0.80;99.90
41944;DHT22;27636;52.610;13.244;2023-11-22T22:11:04;0.90;99.90
41944;DHT22;27636;52.610;13.244;2023-11-22T22:16:10;1.00;99.90
41944;DHT22;27636;52.610;13.244;2023-11-22T22:21:14;0.90;99.90
41944;DHT22;27636;52.610;13.244;2023-11-22T22:26:17;1.00;99.90
41944;DHT22;27636;52.610;13.244;2023-11-22T22:31:24;1.00;99.90
41944;DHT22;27636;52.610;13.244;2023-11-22T22:36:28;1.10;99.90
41944;DHT22;27636;52.610;13.244;2023-11-22T22:41:32;1.10;99.90
41944;DHT22;27636;52.610;13.244;2023-11-22T22:46:39;1.30;99.90
41944;DHT22;27636;52.610;13.244;2023-11-22T22:51:44;1.30;99.90
41944;DHT22;27636;52.610;13.244;2023-11-22T22:56:52;1.40;99.90
41944;DHT22;27636;52.610;13.244;2023-11-22T23:01:57;1.50;99.90
41944;DHT22;27636;52.610;13.244;2023-11-22T23:07:02;1.40;99.90
41944;DHT22;27636;52.610;13.244;2023-11-22T23:12:06;1.50;99.90
41944;DHT22;27636;52.610;13.244;2023-11-22T23:17:12;1.60;99.90
41944;DHT22;27636;52.610;13.244;2023-11-22T23:22:17;1.50;99.90
41944;DHT22;27636;52.610;13.244;2023-11-22T23:27:21;1.60;99.90
41944;DHT22;27636;52.610;13.244;2023-11-22T23:32:26;1.80;99.90
41944;DHT22;27636;52.610;13.244;2023-11-22T23:37:30;1.80;99.90
41944;DHT22;27636;52.610;13.244;2023-11-22T23:42:33;1.70;99.90
41944;DHT22;27636;52.610;13.244;2023-11-22T23:47:39;1.70;99.90
41944;DHT22;27636;52.610;13.244;2023-11-22T23:52:43;1.90;99.90
41944;DHT22;27636;52.610;13.244;2023-11-22T23:57:47;1.90;99.90
